sensor_id;sensor_type;location;lat;lon;timestamp;temperature;humidity
66257;DHT22;53049;43.446;3.698;2023-12-22T00:00:24;13.20;99.90
66257;DHT22;53049;43.446;3.698;2023-12-22T00:02:49;13.10;99.90
66257;DHT22;53049;43.446;3.698;2023-12-22T00:05:15;13.10;99.90
66257;DHT22;53049;43.446;3.698;2023-12-22T00:07:40;13.10;99.90
66257;DHT22;53049;43.446;3.698;2023-12-22T00:10:06;13.10;99.90
66257;DHT22;53049;43.446;3.698;2023-12-22T00:12:32;13.10;99.90
66257;DHT22;53049;43.446;3.698;2023-12-22T00:14:58;13.10;99.90
66257;DHT22;53049;43.446;3.698;2023-12-22T00:17:23;13.10;99.90
66257;DHT22;53049;43.446;3.698;2023-12-22T00:19:49;13.10;99.90
66257;DHT22;53049;43.446;3.698;2023-12-22T00:22:15;13.10;99.90
66257;DHT22;53049;43.446;3.698;2023-12-22T00:24:40;13.10;99.90
66257;DHT22;53049;43.446;3.698;2023-12-22T00:27:06;13.30;99.90
66257;DHT22;53049;43.446;3.698;2023-12-22T00:29:32;13.30;99.90
66257;DHT22;53049;43.446;3.698;2023-12-22T00:32:01;13.40;99.90
66257;DHT22;53049;43.446;3.698;2023-12-22T00:34:27;13.40;99.90
66257;DHT22;53049;43.446;3.698;2023-12-22T00:36:52;13.40;99.90
66257;DHT22;53049;43.446;3.698;2023-12-22T00:39:18;13.40;99.90
66257;DHT22;53049;43.446;3.698;2023-12-22T00:41:44;13.40;99.90
66257;DHT22;53049;43.446;3.698;2023-12-22T00:44:09;13.50;99.90
66257;DHT22;53049;43.446;3.698;2023-12-22T00:46:35;13.40;99.90
66257;DHT22;53049;43.446;3.698;2023-12-22T00:49:00;13.40;99.90
66257;DHT22;53049;43.446;3.698;2023-12-22T00:51:26;13.50;99.90
66257;DHT22;53049;43.446;3.698;2023-12-22T00:53:52;13.50;99.90
66257;DHT22;53049;43.446;3.698;2023-12-22T00:56:17;13.50;99.90
66257;DHT22;53049;43.446;3.698;2023-12-22T00:58:43;13.50;99.90
66257;DHT22;53049;43.446;3.698;2023-12-22T01:01:09;13.50;99.90
66257;DHT22;53049;43.446;3.698;2023-12-22T01:03:34;13.50;99.90
66257;DHT22;53049;43.446;3.698;2023-12-22T01:06:00;13.50;99.90
66257;DHT22;53049;43.446;3.698;2023-12-22T01:08:26;13.60;99.90
66257;DHT22;53049;43.446;3.698;2023-12-22T01:10:51;13.60;99.90
66257;DHT22;53049;43.446;3.698;2023-12-22T01:13:17;13.50;99.90
66257;DHT22;53049;43.446;3.698;2023-12-22T01:15:43;13.50;99.90
66257;DHT22;53049;43.446;3.698;2023-12-22T01:18:10;13.50;99.90
66257;DHT22;53049;43.446;3.698;2023-12-22T01:20:36;13.50;99.90
66257;DHT22;53049;43.446;3.698;2023-12-22T01:23:01;13.50;99.90
66257;DHT22;53049;43.446;3.698;2023-12-22T01:25:27;13.50;99.90
66257;DHT22;53049;43.446;3.698;2023-12-22T01:27:53;13.50;99.90
66257;DHT22;53049;43.446;3.698;2023-12-22T01:30:19;13.40;99.90
66257;DHT22;53049;43.446;3.698;2023-12-22T01:32:44;13.50;99.90
66257;DHT22;53049;43.446;3.698;2023-12-22T01:35:10;13.40;99.90
66257;DHT22;53049;43.446;3.698;2023-12-22T01:37:37;13.40;99.90
66257;DHT22;53049;43.446;3.698;2023-12-22T01:40:03;13.40;99.90
66257;DHT22;53049;43.446;3.698;2023-12-22T01:42:29;13.40;99.90
66257;DHT22;53049;43.446;3.698;2023-12-22T01:44:55;13.40;99.90
66257;DHT22;53049;43.446;3.698;2023-12-22T01:47:21;13.40;99.90
66257;DHT22;53049;43.446;3.698;2023-12-22T01:49:47;13.30;99.90
66257;DHT22;53049;43.446;3.698;2023-12-22T01:52:14;13.30;99.90
66257;DHT22;53049;43.446;3.698;2023-12-22T01:54:40;13.30;99.90
66257;DHT22;53049;43.446;3.698;2023-12-22T01:57:06;13.20;99.90
66257;DHT22;53049;43.446;3.698;2023-12-22T01:59:33;13.20;99.90
66257;DHT22;53049;43.446;3.698;2023-12-22T02:02:02;13.10;99.90
66257;DHT22;53049;43.446;3.698;2023-12-22T02:04:28;13.00;99.90
66257;DHT22;53049;43.446;3.698;2023-12-22T02:06:57;13.00;99.90
66257;DHT22;53049;43.446;3.698;2023-12-22T02:09:24;13.00;99.90
66257;DHT22;53049;43.446;3.698;2023-12-22T02:11:49;13.00;99.90
66257;DHT22;53049;43.446;3.698;2023-12-22T02:14:15;13.00;99.90
66257;DHT22;53049;43.446;3.698;2023-12-22T02:22:05;12.90;99.90
66257;DHT22;53049;43.446;3.698;2023-12-22T02:24:30;12.90;99.90
66257;DHT22;53049;43.446;3.698;2023-12-22T02:27:10;12.90;99.90
66257;DHT22;53049;43.446;3.698;2023-12-22T02:29:49;12.80;99.90
66257;DHT22;53049;43.446;3.698;2023-12-22T02:32:27;12.80;99.90
66257;DHT22;53049;43.446;3.698;2023-12-22T02:34:54;12.80;99.90
66257;DHT22;53049;43.446;3.698;2023-12-22T02:37:22;12.80;99.90
66257;DHT22;53049;43.446;3.698;2023-12-22T02:39:51;12.80;99.90
66257;DHT22;53049;43.446;3.698;2023-12-22T02:42:18;12.80;99.90
66257;DHT22;53049;43.446;3.698;2023-12-22T02:44:45;12.70;99.90
66257;DHT22;53049;43.446;3.698;2023-12-22T02:47:11;12.80;99.90
66257;DHT22;53049;43.446;3.698;2023-12-22T02:49:37;12.80;99.90
66257;DHT22;53049;43.446;3.698;2023-12-22T02:52:03;12.80;99.90
66257;DHT22;53049;43.446;3.698;2023-12-22T02:54:28;12.70;99.90
66257;DHT22;53049;43.446;3.698;2023-12-22T02:56:56;12.70;99.90
66257;DHT22;53049;43.446;3.698;2023-12-22T02:59:21;12.70;99.90
66257;DHT22;53049;43.446;3.698;2023-12-22T03:01:47;12.70;99.90
66257;DHT22;53049;43.446;3.698;2023-12-22T03:04:13;12.80;99.90
66257;DHT22;53049;43.446;3.698;2023-12-22T03:06:38;12.70;99.90
66257;DHT22;53049;43.446;3.698;2023-12-22T03:09:04;12.70;99.90
66257;DHT22;53049;43.446;3.698;2023-12-22T03:11:31;12.70;99.90
66257;DHT22;53049;43.446;3.698;2023-12-22T03:13:57;12.70;99.90
66257;DHT22;53049;43.446;3.698;2023-12-22T03:16:22;12.70;99.90
66257;DHT22;53049;43.446;3.698;2023-12-22T03:18:48;12.80;99.90
66257;DHT22;53049;43.446;3.698;2023-12-22T03:21:19;12.70;99.90
66257;DHT22;53049;43.446;3.698;2023-12-22T03:23:45;12.80;99.90
66257;DHT22;53049;43.446;3.698;2023-12-22T03:26:11;12.70;99.90
66257;DHT22;53049;43.446;3.698;2023-12-22T03:28:37;12.70;99.90
66257;DHT22;53049;43.446;3.698;2023-12-22T03:31:03;12.70;99.90
66257;DHT22;53049;43.446;3.698;2023-12-22T03:33:29;12.70;99.90
66257;DHT22;53049;43.446;3.698;2023-12-22T03:35:55;12.70;99.90
66257;DHT22;53049;43.446;3.698;2023-12-22T03:38:20;12.60;99.90
66257;DHT22;53049;43.446;3.698;2023-12-22T03:40:46;12.70;99.90
66257;DHT22;53049;43.446;3.698;2023-12-22T03:43:12;12.70;99.90
66257;DHT22;53049;43.446;3.698;2023-12-22T03:45:37;12.70;99.90
66257;DHT22;53049;43.446;3.698;2023-12-22T03:48:03;12.70;99.90
66257;DHT22;53049;43.446;3.698;2023-12-22T03:50:29;12.60;99.90
66257;DHT22;53049;43.446;3.698;2023-12-22T03:52:55;12.60;99.90
66257;DHT22;53049;43.446;3.698;2023-12-22T03:55:20;12.60;99.90
66257;DHT22;53049;43.446;3.698;2023-12-22T03:57:46;12.60;99.90
66257;DHT22;53049;43.446;3.698;2023-12-22T04:00:12;12.60;99.90
66257;DHT22;53049;43.446;3.698;2023-12-22T04:02:39;12.60;99.90
66257;DHT22;53049;43.446;3.698;2023-12-22T04:05:05;12.60;99.90
66257;DHT22;53049;43.446;3.698;2023-12-22T04:07:31;12.60;99.90
66257;DHT22;53049;43.446;3.698;2023-12-22T04:09:57;12.60;99.90
66257;DHT22;53049;43.446;3.698;2023-12-22T04:12:22;12.60;99.90
66257;DHT22;53049;43.446;3.698;2023-12-22T04:14:48;12.60;99.90
66257;DHT22;53049;43.446;3.698;2023-12-22T04:17:14;12.60;99.90
66257;DHT22;53049;43.446;3.698;2023-12-22T04:19:39;12.60;99.90
66257;DHT22;53049;43.446;3.698;2023-12-22T04:22:05;12.60;99.90
66257;DHT22;53049;43.446;3.698;2023-12-22T04:24:31;12.50;99.90
66257;DHT22;53049;43.446;3.698;2023-12-22T04:26:56;12.50;99.90
66257;DHT22;53049;43.446;3.698;2023-12-22T04:29:22;12.50;99.90
66257;DHT22;53049;43.446;3.698;2023-12-22T04:31:47;12.50;99.90
66257;DHT22;53049;43.446;3.698;2023-12-22T04:34:14;12.50;99.90
66257;DHT22;53049;43.446;3.698;2023-12-22T04:36:41;12.50;99.90
66257;DHT22;53049;43.446;3.698;2023-12-22T04:39:07;12.60;99.90
66257;DHT22;53049;43.446;3.698;2023-12-22T04:41:33;12.60;99.90
66257;DHT22;53049;43.446;3.698;2023-12-22T04:43:58;12.70;99.90
66257;DHT22;53049;43.446;3.698;2023-12-22T04:46:31;12.70;99.90
66257;DHT22;53049;43.446;3.698;2023-12-22T04:48:57;12.80;99.90
66257;DHT22;53049;43.446;3.698;2023-12-22T04:51:23;12.70;99.90
66257;DHT22;53049;43.446;3.698;2023-12-22T04:53:49;12.80;99.90
66257;DHT22;53049;43.446;3.698;2023-12-22T04:56:15;12.70;99.90
66257;DHT22;53049;43.446;3.698;2023-12-22T04:58:40;12.70;99.90
66257;DHT22;53049;43.446;3.698;2023-12-22T05:01:06;12.80;99.90
66257;DHT22;53049;43.446;3.698;2023-12-22T05:03:32;12.80;99.90
66257;DHT22;53049;43.446;3.698;2023-12-22T05:05:57;12.70;99.90
66257;DHT22;53049;43.446;3.698;2023-12-22T05:08:23;12.70;99.90
66257;DHT22;53049;43.446;3.698;2023-12-22T05:10:49;12.70;99.90
66257;DHT22;53049;43.446;3.698;2023-12-22T05:13:15;12.80;99.90
66257;DHT22;53049;43.446;3.698;2023-12-22T05:15:40;12.70;99.90
66257;DHT22;53049;43.446;3.698;2023-12-22T05:18:06;12.70;99.90
66257;DHT22;53049;43.446;3.698;2023-12-22T05:20:32;12.70;99.90
66257;DHT22;53049;43.446;3.698;2023-12-22T05:22:58;12.70;99.90
66257;DHT22;53049;43.446;3.698;2023-12-22T05:25:24;12.70;99.90
66257;DHT22;53049;43.446;3.698;2023-12-22T05:27:50;12.70;99.90
66257;DHT22;53049;43.446;3.698;2023-12-22T05:30:15;12.70;99.90
66257;DHT22;53049;43.446;3.698;2023-12-22T05:32:41;12.70;99.90
66257;DHT22;53049;43.446;3.698;2023-12-22T05:35:08;12.70;99.90
66257;DHT22;53049;43.446;3.698;2023-12-22T05:37:35;12.70;99.90
66257;DHT22;53049;43.446;3.698;2023-12-22T05:40:01;12.60;99.90
66257;DHT22;53049;43.446;3.698;2023-12-22T05:42:27;12.70;99.90
66257;DHT22;53049;43.446;3.698;2023-12-22T05:44:53;12.60;99.90
66257;DHT22;53049;43.446;3.698;2023-12-22T05:47:18;12.60;99.90
66257;DHT22;53049;43.446;3.698;2023-12-22T05:49:44;12.60;99.90
66257;DHT22;53049;43.446;3.698;2023-12-22T05:52:11;12.60;99.90
66257;DHT22;53049;43.446;3.698;2023-12-22T05:54:37;12.60;99.90
66257;DHT22;53049;43.446;3.698;2023-12-22T05:57:04;12.60;99.90
66257;DHT22;53049;43.446;3.698;2023-12-22T05:59:32;12.50;99.90
66257;DHT22;53049;43.446;3.698;2023-12-22T06:01:58;12.60;99.90
66257;DHT22;53049;43.446;3.698;2023-12-22T06:04:25;12.60;99.90
66257;DHT22;53049;43.446;3.698;2023-12-22T06:06:51;12.60;99.90
66257;DHT22;53049;43.446;3.698;2023-12-22T06:09:16;12.50;99.90
66257;DHT22;53049;43.446;3.698;2023-12-22T06:11:44;12.60;99.90
66257;DHT22;53049;43.446;3.698;2023-12-22T06:14:10;12.60;99.90
66257;DHT22;53049;43.446;3.698;2023-12-22T06:16:35;12.60;99.90
66257;DHT22;53049;43.446;3.698;2023-12-22T06:19:01;12.50;99.90
66257;DHT22;53049;43.446;3.698;2023-12-22T06:21:27;12.50;99.90
66257;DHT22;53049;43.446;3.698;2023-12-22T06:23:52;12.50;99.90
66257;DHT22;53049;43.446;3.698;2023-12-22T06:26:18;12.50;99.90
66257;DHT22;53049;43.446;3.698;2023-12-22T06:28:44;12.40;99.90
66257;DHT22;53049;43.446;3.698;2023-12-22T06:31:18;12.40;99.90
66257;DHT22;53049;43.446;3.698;2023-12-22T06:33:44;12.40;99.90
66257;DHT22;53049;43.446;3.698;2023-12-22T06:36:23;12.40;99.90
66257;DHT22;53049;43.446;3.698;2023-12-22T06:38:50;12.50;99.90
66257;DHT22;53049;43.446;3.698;2023-12-22T06:41:23;12.50;99.90
66257;DHT22;53049;43.446;3.698;2023-12-22T06:43:50;12.50;99.90
66257;DHT22;53049;43.446;3.698;2023-12-22T06:46:20;12.60;99.90
66257;DHT22;53049;43.446;3.698;2023-12-22T06:48:47;12.60;99.90
66257;DHT22;53049;43.446;3.698;2023-12-22T06:53:50;12.60;99.90
66257;DHT22;53049;43.446;3.698;2023-12-22T06:56:20;12.60;99.90
66257;DHT22;53049;43.446;3.698;2023-12-22T06:58:46;12.50;99.90
66257;DHT22;53049;43.446;3.698;2023-12-22T07:01:34;12.60;99.90
66257;DHT22;53049;43.446;3.698;2023-12-22T07:04:01;12.50;99.90
66257;DHT22;53049;43.446;3.698;2023-12-22T07:06:30;12.50;99.90
66257;DHT22;53049;43.446;3.698;2023-12-22T07:11:41;12.50;99.90
66257;DHT22;53049;43.446;3.698;2023-12-22T07:14:06;12.50;99.90
66257;DHT22;53049;43.446;3.698;2023-12-22T07:16:33;12.50;99.90
66257;DHT22;53049;43.446;3.698;2023-12-22T07:18:59;12.60;99.90
66257;DHT22;53049;43.446;3.698;2023-12-22T07:21:25;12.50;99.90
66257;DHT22;53049;43.446;3.698;2023-12-22T07:23:51;12.60;99.90
66257;DHT22;53049;43.446;3.698;2023-12-22T07:26:17;12.50;99.90
66257;DHT22;53049;43.446;3.698;2023-12-22T07:28:42;12.50;99.90
66257;DHT22;53049;43.446;3.698;2023-12-22T07:31:08;12.50;99.90
66257;DHT22;53049;43.446;3.698;2023-12-22T07:33:34;12.50;99.90
66257;DHT22;53049;43.446;3.698;2023-12-22T07:35:59;12.50;99.90
66257;DHT22;53049;43.446;3.698;2023-12-22T07:38:25;12.50;99.90
66257;DHT22;53049;43.446;3.698;2023-12-22T07:40:51;12.50;99.90
66257;DHT22;53049;43.446;3.698;2023-12-22T07:43:16;12.60;99.90
66257;DHT22;53049;43.446;3.698;2023-12-22T07:45:42;12.50;99.90
66257;DHT22;53049;43.446;3.698;2023-12-22T07:48:08;12.60;99.90
66257;DHT22;53049;43.446;3.698;2023-12-22T07:50:33;12.60;99.90
66257;DHT22;53049;43.446;3.698;2023-12-22T07:52:59;12.70;99.90
66257;DHT22;53049;43.446;3.698;2023-12-22T07:55:25;12.60;99.90
66257;DHT22;53049;43.446;3.698;2023-12-22T07:57:51;12.60;99.90
66257;DHT22;53049;43.446;3.698;2023-12-22T08:00:17;12.70;99.90
66257;DHT22;53049;43.446;3.698;2023-12-22T08:02:43;12.70;99.90
66257;DHT22;53049;43.446;3.698;2023-12-22T08:05:09;12.80;99.90
66257;DHT22;53049;43.446;3.698;2023-12-22T08:07:36;12.80;99.90
66257;DHT22;53049;43.446;3.698;2023-12-22T08:10:02;12.80;99.90
66257;DHT22;53049;43.446;3.698;2023-12-22T08:12:28;12.90;99.90
66257;DHT22;53049;43.446;3.698;2023-12-22T08:14:54;12.80;99.90
66257;DHT22;53049;43.446;3.698;2023-12-22T08:17:20;12.90;99.90
66257;DHT22;53049;43.446;3.698;2023-12-22T08:19:46;12.90;99.90
66257;DHT22;53049;43.446;3.698;2023-12-22T08:22:12;12.90;99.90
66257;DHT22;53049;43.446;3.698;2023-12-22T08:24:41;12.90;99.90
66257;DHT22;53049;43.446;3.698;2023-12-22T08:27:07;12.90;99.90
66257;DHT22;53049;43.446;3.698;2023-12-22T08:29:33;12.90;99.90
66257;DHT22;53049;43.446;3.698;2023-12-22T08:31:59;12.90;99.90
66257;DHT22;53049;43.446;3.698;2023-12-22T08:34:26;13.00;99.90
66257;DHT22;53049;43.446;3.698;2023-12-22T08:36:52;13.00;99.90
66257;DHT22;53049;43.446;3.698;2023-12-22T08:39:18;13.00;99.90
66257;DHT22;53049;43.446;3.698;2023-12-22T08:41:44;13.10;99.90
66257;DHT22;53049;43.446;3.698;2023-12-22T08:44:10;13.10;99.90
66257;DHT22;53049;43.446;3.698;2023-12-22T08:46:35;13.10;99.90
66257;DHT22;53049;43.446;3.698;2023-12-22T08:49:01;13.10;99.90
66257;DHT22;53049;43.446;3.698;2023-12-22T08:51:28;13.10;99.90
66257;DHT22;53049;43.446;3.698;2023-12-22T08:53:55;13.20;99.90
66257;DHT22;53049;43.446;3.698;2023-12-22T08:56:24;13.20;99.90
66257;DHT22;53049;43.446;3.698;2023-12-22T08:58:52;13.20;99.90
66257;DHT22;53049;43.446;3.698;2023-12-22T09:01:20;13.20;99.90
66257;DHT22;53049;43.446;3.698;2023-12-22T09:03:46;13.30;99.90
66257;DHT22;53049;43.446;3.698;2023-12-22T09:06:16;13.30;99.90
66257;DHT22;53049;43.446;3.698;2023-12-22T09:08:42;13.30;99.90
66257;DHT22;53049;43.446;3.698;2023-12-22T09:11:10;13.30;99.90
66257;DHT22;53049;43.446;3.698;2023-12-22T09:13:36;13.30;99.90
66257;DHT22;53049;43.446;3.698;2023-12-22T09:16:03;13.30;99.90
66257;DHT22;53049;43.446;3.698;2023-12-22T09:18:29;13.30;99.90
66257;DHT22;53049;43.446;3.698;2023-12-22T09:20:54;13.30;99.90
66257;DHT22;53049;43.446;3.698;2023-12-22T09:23:20;13.30;99.90
66257;DHT22;53049;43.446;3.698;2023-12-22T09:25:49;13.40;99.90
66257;DHT22;53049;43.446;3.698;2023-12-22T09:28:14;13.40;99.90
66257;DHT22;53049;43.446;3.698;2023-12-22T09:30:40;13.40;99.90
66257;DHT22;53049;43.446;3.698;2023-12-22T09:33:07;13.50;99.90
66257;DHT22;53049;43.446;3.698;2023-12-22T09:35:33;13.50;99.90
66257;DHT22;53049;43.446;3.698;2023-12-22T09:37:59;13.50;99.90
66257;DHT22;53049;43.446;3.698;2023-12-22T09:40:24;13.60;99.90
66257;DHT22;53049;43.446;3.698;2023-12-22T09:42:50;13.60;99.90
66257;DHT22;53049;43.446;3.698;2023-12-22T09:45:21;13.60;99.90
66257;DHT22;53049;43.446;3.698;2023-12-22T09:47:48;13.60;99.90
66257;DHT22;53049;43.446;3.698;2023-12-22T09:50:15;13.60;99.90
66257;DHT22;53049;43.446;3.698;2023-12-22T09:52:42;13.60;99.90
66257;DHT22;53049;43.446;3.698;2023-12-22T09:55:09;13.60;99.90
66257;DHT22;53049;43.446;3.698;2023-12-22T09:57:37;13.60;99.90
66257;DHT22;53049;43.446;3.698;2023-12-22T10:00:07;13.60;99.90
66257;DHT22;53049;43.446;3.698;2023-12-22T10:02:34;13.60;99.90
66257;DHT22;53049;43.446;3.698;2023-12-22T10:05:01;13.60;99.90
66257;DHT22;53049;43.446;3.698;2023-12-22T10:07:28;13.70;99.90
66257;DHT22;53049;43.446;3.698;2023-12-22T10:09:54;13.70;99.90
66257;DHT22;53049;43.446;3.698;2023-12-22T10:12:22;13.70;99.90
66257;DHT22;53049;43.446;3.698;2023-12-22T10:14:48;13.80;99.90
66257;DHT22;53049;43.446;3.698;2023-12-22T10:17:15;13.80;99.90
66257;DHT22;53049;43.446;3.698;2023-12-22T10:19:42;13.80;99.90
66257;DHT22;53049;43.446;3.698;2023-12-22T10:22:08;13.80;99.90
66257;DHT22;53049;43.446;3.698;2023-12-22T10:24:41;13.80;99.90
66257;DHT22;53049;43.446;3.698;2023-12-22T10:27:08;13.90;99.90
66257;DHT22;53049;43.446;3.698;2023-12-22T10:29:35;13.90;99.90
66257;DHT22;53049;43.446;3.698;2023-12-22T10:32:01;13.90;99.90
66257;DHT22;53049;43.446;3.698;2023-12-22T10:34:28;14.00;99.90
66257;DHT22;53049;43.446;3.698;2023-12-22T10:36:54;14.00;99.90
66257;DHT22;53049;43.446;3.698;2023-12-22T10:39:20;14.10;99.90
66257;DHT22;53049;43.446;3.698;2023-12-22T10:41:48;14.10;99.90
66257;DHT22;53049;43.446;3.698;2023-12-22T10:44:15;14.10;99.90
66257;DHT22;53049;43.446;3.698;2023-12-22T10:46:43;14.20;99.90
66257;DHT22;53049;43.446;3.698;2023-12-22T10:49:09;14.10;99.90
66257;DHT22;53049;43.446;3.698;2023-12-22T10:51:34;14.10;99.90
66257;DHT22;53049;43.446;3.698;2023-12-22T10:54:00;14.20;99.90
66257;DHT22;53049;43.446;3.698;2023-12-22T10:56:26;14.10;99.90
66257;DHT22;53049;43.446;3.698;2023-12-22T10:58:53;14.10;99.90
66257;DHT22;53049;43.446;3.698;2023-12-22T11:01:21;14.20;99.90
66257;DHT22;53049;43.446;3.698;2023-12-22T11:03:50;14.20;99.90
66257;DHT22;53049;43.446;3.698;2023-12-22T11:06:17;14.30;99.90
66257;DHT22;53049;43.446;3.698;2023-12-22T11:08:47;14.20;99.90
66257;DHT22;53049;43.446;3.698;2023-12-22T11:11:19;14.20;99.90
66257;DHT22;53049;43.446;3.698;2023-12-22T11:13:47;14.20;99.90
66257;DHT22;53049;43.446;3.698;2023-12-22T11:16:14;14.20;99.90
66257;DHT22;53049;43.446;3.698;2023-12-22T11:18:41;14.20;99.90
66257;DHT22;53049;43.446;3.698;2023-12-22T11:21:09;14.20;99.90
66257;DHT22;53049;43.446;3.698;2023-12-22T11:23:36;14.20;99.90
66257;DHT22;53049;43.446;3.698;2023-12-22T11:26:04;14.20;99.90
66257;DHT22;53049;43.446;3.698;2023-12-22T11:28:32;14.20;99.90
66257;DHT22;53049;43.446;3.698;2023-12-22T11:30:59;14.20;99.90
66257;DHT22;53049;43.446;3.698;2023-12-22T11:33:28;14.20;99.90
66257;DHT22;53049;43.446;3.698;2023-12-22T11:35:56;14.30;99.90
66257;DHT22;53049;43.446;3.698;2023-12-22T11:38:23;14.40;99.90
66257;DHT22;53049;43.446;3.698;2023-12-22T11:40:50;14.40;99.90
66257;DHT22;53049;43.446;3.698;2023-12-22T11:43:18;14.50;99.90
66257;DHT22;53049;43.446;3.698;2023-12-22T11:45:44;14.50;99.90
66257;DHT22;53049;43.446;3.698;2023-12-22T11:48:10;14.50;99.90
66257;DHT22;53049;43.446;3.698;2023-12-22T11:50:37;14.50;99.90
66257;DHT22;53049;43.446;3.698;2023-12-22T11:53:22;14.50;99.90
66257;DHT22;53049;43.446;3.698;2023-12-22T11:56:01;14.50;99.90
66257;DHT22;53049;43.446;3.698;2023-12-22T11:58:37;14.50;99.90
66257;DHT22;53049;43.446;3.698;2023-12-22T12:01:06;14.60;99.90
66257;DHT22;53049;43.446;3.698;2023-12-22T12:03:36;14.70;99.90
66257;DHT22;53049;43.446;3.698;2023-12-22T12:08:58;14.80;99.90
66257;DHT22;53049;43.446;3.698;2023-12-22T12:14:40;14.70;99.90
66257;DHT22;53049;43.446;3.698;2023-12-22T12:17:07;14.70;99.90
66257;DHT22;53049;43.446;3.698;2023-12-22T12:19:35;14.70;99.90
66257;DHT22;53049;43.446;3.698;2023-12-22T12:22:03;14.80;99.90
66257;DHT22;53049;43.446;3.698;2023-12-22T12:24:28;14.80;99.90
66257;DHT22;53049;43.446;3.698;2023-12-22T12:26:54;14.90;99.90
66257;DHT22;53049;43.446;3.698;2023-12-22T12:29:22;15.00;99.90
66257;DHT22;53049;43.446;3.698;2023-12-22T12:31:48;15.10;99.90
66257;DHT22;53049;43.446;3.698;2023-12-22T12:34:14;15.10;99.90
66257;DHT22;53049;43.446;3.698;2023-12-22T12:36:43;15.20;99.90
66257;DHT22;53049;43.446;3.698;2023-12-22T12:39:14;15.20;99.90
66257;DHT22;53049;43.446;3.698;2023-12-22T12:41:42;15.20;99.90
66257;DHT22;53049;43.446;3.698;2023-12-22T12:44:10;15.20;99.90
66257;DHT22;53049;43.446;3.698;2023-12-22T12:46:38;15.30;99.90
66257;DHT22;53049;43.446;3.698;2023-12-22T12:49:05;15.30;99.90
66257;DHT22;53049;43.446;3.698;2023-12-22T12:51:37;15.30;99.90
66257;DHT22;53049;43.446;3.698;2023-12-22T12:54:05;15.30;99.90
66257;DHT22;53049;43.446;3.698;2023-12-22T12:56:37;15.30;99.90
66257;DHT22;53049;43.446;3.698;2023-12-22T13:01:43;15.30;99.90
66257;DHT22;53049;43.446;3.698;2023-12-22T13:04:10;15.30;99.90
66257;DHT22;53049;43.446;3.698;2023-12-22T13:06:43;15.30;99.90
66257;DHT22;53049;43.446;3.698;2023-12-22T13:09:09;15.30;99.90
66257;DHT22;53049;43.446;3.698;2023-12-22T13:11:35;15.30;99.90
66257;DHT22;53049;43.446;3.698;2023-12-22T13:14:01;15.30;99.90
66257;DHT22;53049;43.446;3.698;2023-12-22T13:16:28;15.30;99.90
66257;DHT22;53049;43.446;3.698;2023-12-22T13:18:57;15.30;99.90
66257;DHT22;53049;43.446;3.698;2023-12-22T13:21:26;15.40;99.90
66257;DHT22;53049;43.446;3.698;2023-12-22T13:24:11;15.40;99.90
66257;DHT22;53049;43.446;3.698;2023-12-22T13:26:38;15.40;99.90
66257;DHT22;53049;43.446;3.698;2023-12-22T13:29:04;15.50;99.90
66257;DHT22;53049;43.446;3.698;2023-12-22T13:31:33;15.50;99.90
66257;DHT22;53049;43.446;3.698;2023-12-22T13:33:59;15.50;99.90
66257;DHT22;53049;43.446;3.698;2023-12-22T13:36:26;15.60;99.90
66257;DHT22;53049;43.446;3.698;2023-12-22T13:38:52;15.60;99.90
66257;DHT22;53049;43.446;3.698;2023-12-22T13:41:18;15.60;99.90
66257;DHT22;53049;43.446;3.698;2023-12-22T13:43:44;15.60;99.90
66257;DHT22;53049;43.446;3.698;2023-12-22T13:46:12;15.60;99.90
66257;DHT22;53049;43.446;3.698;2023-12-22T13:48:38;15.60;99.90
66257;DHT22;53049;43.446;3.698;2023-12-22T13:51:04;15.60;99.90
66257;DHT22;53049;43.446;3.698;2023-12-22T13:53:29;15.50;99.90
66257;DHT22;53049;43.446;3.698;2023-12-22T13:55:59;15.60;99.90
66257;DHT22;53049;43.446;3.698;2023-12-22T13:58:25;15.60;99.90
66257;DHT22;53049;43.446;3.698;2023-12-22T14:00:52;15.60;99.90
66257;DHT22;53049;43.446;3.698;2023-12-22T14:03:19;15.60;99.90
66257;DHT22;53049;43.446;3.698;2023-12-22T14:05:52;15.50;99.90
66257;DHT22;53049;43.446;3.698;2023-12-22T14:08:18;15.60;99.90
66257;DHT22;53049;43.446;3.698;2023-12-22T14:10:48;15.50;99.90
66257;DHT22;53049;43.446;3.698;2023-12-22T14:13:14;15.50;99.90
66257;DHT22;53049;43.446;3.698;2023-12-22T14:15:43;15.50;99.90
66257;DHT22;53049;43.446;3.698;2023-12-22T14:18:10;15.40;99.90
66257;DHT22;53049;43.446;3.698;2023-12-22T14:20:36;15.40;99.90
66257;DHT22;53049;43.446;3.698;2023-12-22T14:23:01;15.40;99.90
66257;DHT22;53049;43.446;3.698;2023-12-22T14:25:27;15.40;99.90
66257;DHT22;53049;43.446;3.698;2023-12-22T14:27:53;15.30;99.90
66257;DHT22;53049;43.446;3.698;2023-12-22T14:30:23;15.30;99.90
66257;DHT22;53049;43.446;3.698;2023-12-22T14:32:49;15.30;99.90
66257;DHT22;53049;43.446;3.698;2023-12-22T14:35:14;15.10;99.90
66257;DHT22;53049;43.446;3.698;2023-12-22T14:37:40;15.10;99.90
66257;DHT22;53049;43.446;3.698;2023-12-22T14:40:06;15.10;99.90
66257;DHT22;53049;43.446;3.698;2023-12-22T14:42:32;15.10;99.90
66257;DHT22;53049;43.446;3.698;2023-12-22T14:44:58;15.10;99.90
66257;DHT22;53049;43.446;3.698;2023-12-22T14:47:24;15.00;99.90
66257;DHT22;53049;43.446;3.698;2023-12-22T14:49:49;15.00;99.90
66257;DHT22;53049;43.446;3.698;2023-12-22T14:52:15;14.90;99.90
66257;DHT22;53049;43.446;3.698;2023-12-22T14:54:41;14.80;99.90
66257;DHT22;53049;43.446;3.698;2023-12-22T14:57:06;14.80;99.90
66257;DHT22;53049;43.446;3.698;2023-12-22T14:59:32;14.80;99.90
66257;DHT22;53049;43.446;3.698;2023-12-22T15:01:58;14.70;99.90
66257;DHT22;53049;43.446;3.698;2023-12-22T15:04:23;14.70;99.90
66257;DHT22;53049;43.446;3.698;2023-12-22T15:06:50;14.70;99.90
66257;DHT22;53049;43.446;3.698;2023-12-22T15:09:15;14.70;99.90
66257;DHT22;53049;43.446;3.698;2023-12-22T15:11:43;14.60;99.90
66257;DHT22;53049;43.446;3.698;2023-12-22T15:14:10;14.70;99.90
66257;DHT22;53049;43.446;3.698;2023-12-22T15:16:40;14.70;99.90
66257;DHT22;53049;43.446;3.698;2023-12-22T15:19:06;14.70;99.90
66257;DHT22;53049;43.446;3.698;2023-12-22T15:21:32;14.70;99.90
66257;DHT22;53049;43.446;3.698;2023-12-22T15:23:57;14.70;99.90
66257;DHT22;53049;43.446;3.698;2023-12-22T15:26:24;14.80;99.90
66257;DHT22;53049;43.446;3.698;2023-12-22T15:28:54;14.80;99.90
66257;DHT22;53049;43.446;3.698;2023-12-22T15:31:20;14.80;99.90
66257;DHT22;53049;43.446;3.698;2023-12-22T15:33:46;14.80;99.90
66257;DHT22;53049;43.446;3.698;2023-12-22T15:36:17;14.80;99.90
66257;DHT22;53049;43.446;3.698;2023-12-22T15:38:43;14.80;99.90
66257;DHT22;53049;43.446;3.698;2023-12-22T15:41:09;14.80;99.90
66257;DHT22;53049;43.446;3.698;2023-12-22T15:43:35;14.70;99.90
66257;DHT22;53049;43.446;3.698;2023-12-22T15:46:04;14.70;99.90